Time;durP1;ratioP1;P1;durP2;ratioP2;P2;SDS_P1;SDS_P2;PMS_P1;PMS_P2;Temp;Humidity;BMP_temperature;BMP_pressure;BME280_temperature;BME280_humidity;BME280_pressure;Samples;Min_cycle;Max_cycle;Signal;HPM_P1;HPM_P2
2022/01/23 00:01:14;;;;;;;3.63;2.13;;;;;;;9.21;77.43;103596.38;5051105;28;20029;-68
2022/01/23 00:03:45;;;;;;;4.32;2.33;;;;;;;8.69;78.82;103608.56;5051706;28;20849;-68
2022/01/23 00:06:10;;;;;;;11.25;2.78;;;;;;;8.13;80.79;103602.28;5050918;28;20048;-69
2022/01/23 00:08:36;;;;;;;4.20;2.25;;;;;;;9.00;77.66;103610.03;5052657;28;20033;-67
2022/01/23 00:11:01;;;;;;;3.05;1.98;;;;;;;9.49;75.76;103600.75;5050971;28;20101;-68
2022/01/23 00:17:12;;;;;;;5.63;2.33;;;;;;;9.64;74.97;103593.84;5049919;28;20025;-69
2022/01/23 00:18:58;;;;;;;4.28;2.63;;;;;;;9.87;73.88;103597.78;5042350;28;20048;-68
2022/01/23 00:21:23;;;;;;;2.30;2.00;;;;;;;9.98;73.13;103591.34;5050944;28;20502;-69
2022/01/23 00:31:42;;;;;;;5.38;2.42;;;;;;;9.45;74.86;103610.91;5049618;28;20554;-68
2022/01/23 00:34:07;;;;;;;7.57;3.80;;;;;;;9.48;74.94;103610.63;5047025;28;20041;-68
2022/01/23 00:36:35;;;;;;;7.57;2.97;;;;;;;9.37;75.04;103605.47;5047888;28;20186;-69
2022/01/23 00:39:00;;;;;;;7.60;3.10;;;;;;;9.54;74.27;103606.50;5048566;28;20047;-67
2022/01/23 00:41:25;;;;;;;9.55;3.88;;;;;;;10.18;71.88;103609.84;5051957;28;20045;-68
2022/01/23 00:43:53;;;;;;;8.13;4.40;;;;;;;10.12;71.50;103606.94;5051655;28;20044;-69
2022/01/23 00:51:28;;;;;;;8.68;5.07;;;;;;;10.25;71.41;103613.63;5047042;28;20033;-68
2022/01/23 00:53:55;;;;;;;11.23;5.20;;;;;;;10.05;71.35;103609.38;5044262;28;20033;-67
2022/01/23 00:56:21;;;;;;;9.55;5.90;;;;;;;10.21;71.24;103616.75;5045244;28;20377;-68
2022/01/23 00:58:48;;;;;;;11.90;5.50;;;;;;;10.09;72.04;103617.97;5045756;28;20045;-68
2022/01/23 01:01:14;;;;;;;17.58;6.30;;;;;;;9.87;72.99;103618.44;5050005;28;20072;-68
2022/01/23 01:03:39;;;;;;;12.68;6.30;;;;;;;10.08;71.91;103610.91;5040835;28;20098;-68
2022/01/23 01:06:05;;;;;;;13.95;5.65;;;;;;;9.97;72.39;103595.84;5040500;28;20045;-68
2022/01/23 01:08:31;;;;;;;10.80;6.80;;;;;;;9.63;73.72;103582.25;5049365;28;20021;-68
2022/01/23 01:14:06;;;;;;;13.80;7.28;;;;;;;9.62;73.64;103582.41;5044911;28;20095;-68
2022/01/23 01:30:30;;;;;;;11.88;6.55;;;;;;;9.94;71.96;103577.38;4982390;28;20058;-69
2022/01/23 01:33:10;;;;;;;14.52;6.75;;;;;;;9.67;72.88;103580.97;4984481;28;20070;-69
2022/01/23 01:35:59;;;;;;;12.05;7.38;;;;;;;9.68;72.68;103589.88;4984785;28;20022;-68
2022/01/23 01:38:24;;;;;;;11.98;7.03;;;;;;;9.53;73.55;103584.16;4981794;28;20125;-67
2022/01/23 01:40:50;;;;;;;15.93;7.63;;;;;;;9.81;72.76;103584.13;4983499;28;20129;-68
2022/01/23 01:43:15;;;;;;;8.95;6.75;;;;;;;9.28;74.43;103592.09;4981731;28;20047;-68
2022/01/23 01:45:42;;;;;;;15.00;8.32;;;;;;;9.47;74.08;103592.81;4983217;28;20454;-70
2022/01/23 01:48:08;;;;;;;12.40;7.88;;;;;;;9.72;72.72;103594.78;4983331;28;20039;-68
2022/01/23 01:50:35;;;;;;;12.48;7.65;;;;;;;9.60;73.22;103600.53;4984176;28;20045;-68
2022/01/23 01:53:02;;;;;;;18.08;8.27;;;;;;;9.55;73.30;103600.97;4976992;28;20046;-69
2022/01/23 01:55:35;;;;;;;12.68;7.32;;;;;;;9.61;73.27;103610.28;4980974;28;20053;-67
2022/01/23 01:58:04;;;;;;;13.85;7.55;;;;;;;9.75;72.87;103602.53;4995684;28;20560;-67
2022/01/23 02:08:33;;;;;;;12.32;7.70;;;;;;;9.80;72.45;103595.84;5041057;28;20056;-68
2022/01/23 02:11:10;;;;;;;13.30;8.45;;;;;;;9.98;71.81;103599.41;5041795;28;20115;-68
2022/01/23 02:13:45;;;;;;;11.30;7.80;;;;;;;10.11;71.78;103602.56;5036583;28;20048;-68
2022/01/23 02:57:04;;;;;;;11.10;8.23;;;;;;;10.28;70.90;103585.59;4969017;28;20054;-68
2022/01/23 02:59:32;;;;;;;13.23;8.20;;;;;;;10.39;70.48;103593.41;4969982;28;20043;-67
2022/01/23 03:04:32;;;;;;;15.30;7.95;;;;;;;10.37;70.53;103595.41;4969980;28;20050;-69
2022/01/23 03:07:15;;;;;;;12.25;7.90;;;;;;;10.49;69.85;103597.69;4968577;28;20050;-68
2022/01/23 03:13:25;;;;;;;12.85;9.75;;;;;;;10.29;71.21;103590.81;4941339;29;20059;-68
2022/01/23 03:28:37;;;;;;;16.77;9.63;;;;;;;10.50;70.27;103601.19;4938896;29;20047;-68
2022/01/23 03:31:25;;;;;;;14.50;8.90;;;;;;;10.37;70.52;103600.78;4963369;28;20057;-69
2022/01/23 03:33:52;;;;;;;14.30;8.43;;;;;;;10.23;70.84;103604.00;4977815;28;20113;-69
2022/01/23 03:36:17;;;;;;;21.15;11.23;;;;;;;10.30;70.88;103613.97;4985401;28;20145;-67
2022/01/23 03:38:43;;;;;;;16.35;8.50;;;;;;;10.41;70.82;103608.38;4977537;28;20410;-67
2022/01/23 03:41:10;;;;;;;13.50;9.13;;;;;;;10.18;71.17;103607.16;4979034;28;20074;-67
2022/01/23 03:43:38;;;;;;;15.93;10.32;;;;;;;10.41;70.27;103607.53;4981965;28;20046;-69
2022/01/23 03:51:35;;;;;;;16.02;9.95;;;;;;;9.56;73.00;103604.50;5054153;28;20095;-67
2022/01/23 03:54:02;;;;;;;21.00;10.95;;;;;;;9.50;74.43;103605.94;5041472;28;20045;-67
2022/01/23 03:56:30;;;;;;;15.77;10.82;;;;;;;10.12;71.43;103605.09;5039953;28;20366;-67
2022/01/23 03:58:58;;;;;;;21.20;11.70;;;;;;;10.33;70.64;103604.78;5039518;28;20033;-66
2022/01/23 04:01:23;;;;;;;15.88;11.55;;;;;;;10.33;70.93;103607.47;5047990;28;20086;-68
2022/01/23 04:03:49;;;;;;;17.90;11.27;;;;;;;10.07;71.53;103612.75;5042794;28;20037;-68
2022/01/23 04:06:16;;;;;;;17.75;12.77;;;;;;;10.32;71.02;103614.66;5045737;28;20049;-67
2022/01/23 04:08:41;;;;;;;20.40;12.30;;;;;;;10.45;69.89;103606.22;5052743;28;20033;-67
2022/01/23 04:11:07;;;;;;;25.23;14.20;;;;;;;9.98;72.23;103600.25;5042470;28;20038;-67
2022/01/23 04:13:50;;;;;;;18.63;13.38;;;;;;;10.02;72.04;103609.69;5050186;28;20112;-67
2022/01/23 04:32:24;;;;;;;28.35;17.23;;;;;;;10.28;71.19;103615.16;5036438;28;20467;-68
2022/01/23 04:45:31;;;;;;;27.98;17.85;;;;;;;10.28;71.79;103631.28;5042293;28;20051;-67
2022/01/23 05:02:29;;;;;;;43.17;20.08;;;;;;;9.90;73.18;103624.34;5042515;28;20048;-68
2022/01/23 05:04:33;;;;;;;33.13;19.45;;;;;;;9.90;72.86;103618.97;5037214;28;20500;-68
2022/01/23 05:07:01;;;;;;;30.38;18.42;;;;;;;9.66;74.37;103621.41;5041249;28;20437;-67
2022/01/23 05:09:28;;;;;;;33.75;19.75;;;;;;;9.72;73.31;103615.41;5048087;28;20029;-67
2022/01/23 05:11:59;;;;;;;31.02;19.80;;;;;;;10.16;72.20;103619.09;5045066;28;20041;-67
2022/01/23 05:14:38;;;;;;;36.33;19.48;;;;;;;10.30;71.07;103618.53;5046805;28;20055;-68
2022/01/23 05:17:06;;;;;;;34.00;18.92;;;;;;;10.11;71.95;103624.06;5050306;28;20052;-67
2022/01/23 05:19:33;;;;;;;38.10;20.35;;;;;;;10.27;71.46;103630.44;5052421;28;20025;-68
2022/01/23 05:24:30;;;;;;;36.35;19.90;;;;;;;10.02;72.63;103628.50;5043407;28;20090;-69
2022/01/23 05:27:05;;;;;;;33.17;20.42;;;;;;;9.92;73.01;103632.25;5049089;28;20032;-68
2022/01/23 05:29:31;;;;;;;32.83;19.30;;;;;;;9.88;73.38;103631.72;5044159;28;20056;-68
2022/01/23 05:31:56;;;;;;;38.70;19.25;;;;;;;9.81;73.79;103635.16;5045870;28;20128;-68
2022/01/23 05:34:23;;;;;;;37.10;19.65;;;;;;;9.62;73.98;103636.13;5042855;28;20397;-67
2022/01/23 05:36:49;;;;;;;40.63;19.98;;;;;;;9.05;76.45;103639.94;5042865;28;20538;-67
2022/01/23 05:39:18;;;;;;;43.40;20.30;;;;;;;9.83;73.90;103627.78;5038210;28;20041;-69
2022/01/23 05:41:43;;;;;;;42.67;20.10;;;;;;;10.05;72.76;103622.81;5041186;28;20041;-69
2022/01/23 05:44:08;;;;;;;44.15;22.85;;;;;;;10.06;72.76;103616.44;5037400;28;20435;-69
2022/01/23 05:46:34;;;;;;;43.95;22.08;;;;;;;10.32;71.59;103620.03;5042487;28;21698;-68
2022/01/23 05:48:59;;;;;;;46.90;21.08;;;;;;;9.95;72.84;103621.19;5042649;28;20048;-66
2022/01/23 05:51:26;;;;;;;58.80;22.08;;;;;;;10.05;73.07;103627.31;5046013;28;20041;-67
2022/01/23 05:53:52;;;;;;;45.80;21.27;;;;;;;10.10;72.95;103636.63;5042189;28;20029;-69
2022/01/23 05:56:18;;;;;;;43.00;20.58;;;;;;;10.27;72.12;103627.75;5049900;28;20099;-70
2022/01/23 05:58:44;;;;;;;46.60;22.20;;;;;;;10.42;71.44;103630.69;5041262;28;20060;-68
2022/01/23 06:01:10;;;;;;;49.25;22.55;;;;;;;10.41;71.18;103631.72;5038511;28;20048;-67
2022/01/23 06:03:35;;;;;;;46.08;21.00;;;;;;;10.45;71.13;103628.56;5045914;28;20167;-67
2022/01/23 06:06:00;;;;;;;42.25;21.05;;;;;;;10.25;71.94;103631.56;5045636;28;20095;-67
2022/01/23 06:08:26;;;;;;;49.85;20.88;;;;;;;10.15;72.00;103628.97;5040169;28;20376;-69
2022/01/23 06:10:56;;;;;;;47.13;19.48;;;;;;;10.04;73.07;103641.75;5043055;28;20497;-69
2022/01/23 06:13:24;;;;;;;39.67;20.60;;;;;;;10.31;71.59;103644.41;5040197;28;20033;-67
2022/01/23 06:15:49;;;;;;;41.53;19.77;;;;;;;10.08;72.53;103640.47;5041774;28;20057;-68
2022/01/23 06:18:14;;;;;;;39.35;19.48;;;;;;;9.49;74.58;103639.13;5045776;28;20044;-67
2022/01/23 06:20:40;;;;;;;45.97;20.42;;;;;;;9.98;73.04;103634.31;5038290;28;20036;-67
2022/01/23 06:23:05;;;;;;;39.17;20.65;;;;;;;10.17;71.97;103634.19;5045016;28;20091;-67
2022/01/23 06:25:36;;;;;;;37.08;18.85;;;;;;;9.82;73.06;103645.75;5034378;28;20029;-67
2022/01/23 06:28:06;;;;;;;34.90;19.58;;;;;;;10.20;72.12;103641.97;5049260;28;20033;-68
2022/01/23 06:30:33;;;;;;;47.83;21.20;;;;;;;9.93;73.21;103644.66;5044942;28;20496;-67
2022/01/23 06:32:59;;;;;;;36.65;20.30;;;;;;;9.99;72.71;103639.53;5034552;28;20036;-69
2022/01/23 06:35:24;;;;;;;37.13;19.77;;;;;;;10.20;71.88;103650.03;5040787;28;20389;-68
2022/01/23 06:37:50;;;;;;;41.25;19.77;;;;;;;10.08;72.43;103652.06;5040681;28;20037;-67
2022/01/23 06:40:16;;;;;;;40.92;20.60;;;;;;;10.23;71.92;103653.22;5047114;28;20041;-68
2022/01/23 06:42:41;;;;;;;38.42;20.60;;;;;;;10.30;71.67;103653.47;5034928;28;20450;-69
2022/01/23 06:45:07;;;;;;;33.60;19.77;;;;;;;10.37;71.18;103655.38;5016407;28;20029;-68
2022/01/23 06:47:32;;;;;;;35.42;20.35;;;;;;;10.34;71.55;103654.81;5042595;28;20049;-69
2022/01/23 06:49:58;;;;;;;35.70;20.30;;;;;;;10.22;72.03;103658.78;5047160;28;20526;-69
2022/01/23 06:52:24;;;;;;;45.03;19.63;;;;;;;9.62;74.13;103661.13;5041379;28;20131;-68
2022/01/23 06:54:49;;;;;;;37.33;18.33;;;;;;;9.83;73.43;103660.03;5044964;28;20570;-68
2022/01/23 06:57:14;;;;;;;43.72;22.60;;;;;;;10.23;71.80;103663.13;5045117;28;20033;-68
2022/01/23 06:59:40;;;;;;;42.47;19.35;;;;;;;10.03;72.46;103670.47;5037619;28;20083;-68
2022/01/23 07:02:05;;;;;;;46.10;21.15;;;;;;;9.99;72.83;103673.59;5049418;28;20123;-68
2022/01/23 07:04:31;;;;;;;42.08;20.95;;;;;;;10.23;71.73;103676.56;5032970;28;20045;-68
2022/01/23 07:06:57;;;;;;;39.53;21.10;;;;;;;10.25;71.68;103670.06;5034469;28;20543;-68
2022/01/23 07:09:22;;;;;;;38.30;20.80;;;;;;;10.44;71.08;103672.56;5041807;28;20029;-69
2022/01/23 07:11:48;;;;;;;46.70;22.45;;;;;;;10.41;70.69;103678.25;5034464;28;20473;-69
2022/01/23 07:14:13;;;;;;;41.10;19.98;;;;;;;10.31;71.08;103672.13;5042986;28;20112;-68
2022/01/23 07:16:39;;;;;;;42.17;19.75;;;;;;;10.49;70.77;103677.47;5036069;28;20435;-69
2022/01/23 07:19:04;;;;;;;41.63;20.05;;;;;;;10.35;70.88;103678.88;5044747;28;20393;-67
2022/01/23 07:21:30;;;;;;;42.67;19.95;;;;;;;10.33;70.61;103682.72;5045907;28;20159;-68
2022/01/23 07:23:55;;;;;;;39.15;20.15;;;;;;;10.39;70.81;103685.63;5044857;28;20420;-69
2022/01/23 07:26:22;;;;;;;44.58;17.50;;;;;;;10.33;71.26;103696.16;5041649;28;20029;-67
2022/01/23 07:28:48;;;;;;;41.10;19.98;;;;;;;9.97;72.03;103695.25;5037817;28;20056;-67
2022/01/23 07:31:30;;;;;;;41.63;19.73;;;;;;;10.29;71.07;103695.63;5046457;28;20033;-67
2022/01/23 07:33:56;;;;;;;40.63;18.67;;;;;;;10.18;70.90;103701.22;5047661;28;20037;-67
2022/01/23 07:36:21;;;;;;;49.80;19.80;;;;;;;10.23;71.24;103706.13;5044046;28;20461;-68
2022/01/23 07:38:46;;;;;;;41.58;19.90;;;;;;;10.28;71.21;103706.53;5045356;28;20120;-68
2022/01/23 07:41:12;;;;;;;57.97;19.35;;;;;;;10.34;71.10;103705.88;5038522;28;20087;-67
2022/01/23 07:43:37;;;;;;;51.15;20.50;;;;;;;10.40;70.82;103710.66;5039065;28;20497;-67
2022/01/23 07:46:03;;;;;;;51.60;18.63;;;;;;;10.33;70.65;103707.75;5049917;28;20123;-67
2022/01/23 07:48:28;;;;;;;66.38;21.08;;;;;;;10.31;70.96;103711.59;5036427;28;20106;-69
2022/01/23 07:50:53;;;;;;;66.28;21.70;;;;;;;10.36;70.75;103707.44;5041557;28;20083;-68
2022/01/23 07:53:19;;;;;;;68.45;18.27;;;;;;;10.46;70.15;103710.03;5032439;28;20045;-68
2022/01/23 07:55:44;;;;;;;73.72;20.40;;;;;;;10.48;69.89;103719.66;5042198;28;20044;-66
2022/01/23 07:58:14;;;;;;;56.33;18.23;;;;;;;10.40;70.57;103714.19;5042933;28;20037;-69
2022/01/23 08:00:41;;;;;;;87.35;18.40;;;;;;;10.45;70.43;103706.53;5044535;28;20029;-68
2022/01/23 08:03:06;;;;;;;97.43;19.08;;;;;;;10.42;70.35;103720.25;5042951;28;20120;-68
2022/01/23 08:05:32;;;;;;;87.15;18.15;;;;;;;10.40;70.40;103719.56;5013702;28;20135;-69
2022/01/23 08:07:58;;;;;;;76.22;17.00;;;;;;;10.36;70.56;103723.56;5037166;28;20045;-67
2022/01/23 08:10:23;;;;;;;69.45;19.67;;;;;;;10.49;70.34;103726.72;5040824;28;20069;-67
2022/01/23 08:12:49;;;;;;;58.55;18.45;;;;;;;10.34;70.86;103733.63;5036602;28;20029;-69
2022/01/23 08:15:15;;;;;;;46.67;19.10;;;;;;;10.29;71.03;103721.66;5040010;28;20040;-69
2022/01/23 08:17:40;;;;;;;46.60;21.25;;;;;;;10.60;70.04;103723.78;5051768;28;20081;-69
2022/01/23 08:20:07;;;;;;;43.95;21.70;;;;;;;10.55;70.18;103725.25;5040615;28;20150;-68
2022/01/23 08:22:33;;;;;;;44.00;20.63;;;;;;;10.63;69.87;103724.47;5047172;28;20049;-68
2022/01/23 08:25:01;;;;;;;37.58;19.67;;;;;;;10.63;70.34;103720.78;5049945;28;20036;-67
2022/01/23 08:27:28;;;;;;;34.28;18.52;;;;;;;10.68;70.49;103716.78;5033785;28;20056;-69
2022/01/23 08:29:53;;;;;;;39.47;19.08;;;;;;;10.61;70.09;103721.97;5042320;28;20035;-69
2022/01/23 08:32:19;;;;;;;41.88;19.88;;;;;;;10.46;70.96;103723.47;5041561;28;20033;-69
2022/01/23 08:34:45;;;;;;;38.15;18.58;;;;;;;10.61;70.11;103720.09;5050400;28;20083;-67
2022/01/23 08:37:11;;;;;;;32.97;17.40;;;;;;;10.36;71.06;103726.25;5039950;28;20461;-68
2022/01/23 08:39:38;;;;;;;38.33;18.85;;;;;;;10.28;71.46;103733.41;5041255;28;20112;-68
2022/01/23 08:42:05;;;;;;;30.33;15.82;;;;;;;10.34;70.89;103743.53;5046677;28;20053;-67
2022/01/23 08:44:31;;;;;;;33.10;15.98;;;;;;;10.50;70.53;103730.25;5042745;28;20034;-68
2022/01/23 08:46:57;;;;;;;28.33;16.55;;;;;;;10.65;69.90;103728.72;5030001;28;20052;-68
2022/01/23 08:49:25;;;;;;;32.95;15.25;;;;;;;10.82;69.76;103719.78;5046916;28;20047;-69
2022/01/23 08:51:52;;;;;;;26.92;14.63;;;;;;;10.96;69.28;103727.28;5040585;28;20509;-68
2022/01/23 08:54:18;;;;;;;28.83;16.70;;;;;;;10.94;68.96;103739.19;5043960;28;20051;-68
2022/01/23 08:56:43;;;;;;;24.20;14.35;;;;;;;11.03;69.06;103735.53;5042330;28;20112;-68
2022/01/23 08:59:09;;;;;;;30.75;16.48;;;;;;;11.01;68.99;103733.00;5042470;28;20040;-68
2022/01/23 09:01:35;;;;;;;30.73;16.95;;;;;;;11.14;69.02;103727.22;5046172;28;20094;-69
2022/01/23 09:04:02;;;;;;;36.35;16.35;;;;;;;10.76;70.08;103733.84;5040856;28;20517;-69
2022/01/23 09:06:28;;;;;;;30.77;15.63;;;;;;;11.07;69.21;103735.09;5051120;28;20060;-69
2022/01/23 09:08:54;;;;;;;30.60;16.27;;;;;;;11.13;69.22;103738.97;5044204;28;20041;-68
2022/01/23 09:16:15;;;;;;;24.38;13.90;;;;;;;11.49;68.30;103735.19;5047049;28;20039;-68
2022/01/23 09:18:40;;;;;;;26.45;13.85;;;;;;;11.52;68.10;103744.78;5050783;28;20049;-67
2022/01/23 09:21:06;;;;;;;26.67;13.30;;;;;;;11.40;68.54;103752.28;5053064;28;20568;-69
2022/01/23 09:23:32;;;;;;;21.73;13.25;;;;;;;11.45;68.19;103748.13;5048015;28;20078;-68
2022/01/23 09:26:00;;;;;;;21.63;14.55;;;;;;;11.57;67.63;103751.38;5049420;28;20095;-68
2022/01/23 09:28:33;;;;;;;22.13;11.73;;;;;;;11.55;67.38;103755.22;5046154;28;20033;-69
2022/01/23 09:31:00;;;;;;;21.75;13.23;;;;;;;11.58;67.33;103757.63;5047372;28;20481;-68
2022/01/23 09:33:26;;;;;;;25.88;13.43;;;;;;;11.63;67.56;103755.28;5046768;28;20041;-67
2022/01/23 09:35:51;;;;;;;22.95;13.80;;;;;;;11.75;67.49;103746.78;5047760;28;20044;-69
2022/01/23 09:38:17;;;;;;;21.85;13.18;;;;;;;11.51;67.97;103746.63;5046278;28;20045;-70
2022/01/23 09:40:43;;;;;;;18.58;12.18;;;;;;;11.82;67.30;103745.13;5047170;28;20044;-69
2022/01/23 09:43:15;;;;;;;22.77;12.70;;;;;;;12.00;66.99;103745.00;5043159;28;20045;-70
2022/01/23 09:45:45;;;;;;;24.90;14.77;;;;;;;11.92;67.34;103750.38;5042625;28;20039;-69
2022/01/23 09:48:11;;;;;;;22.45;13.98;;;;;;;11.91;67.27;103749.53;5047383;28;20020;-69
2022/01/23 09:50:37;;;;;;;25.58;14.98;;;;;;;11.87;67.23;103750.84;5032400;28;20045;-69
2022/01/23 09:53:02;;;;;;;14.88;10.32;;;;;;;11.83;66.96;103759.44;5042101;28;20041;-70
2022/01/23 09:55:30;;;;;;;17.40;10.55;;;;;;;11.96;66.38;103749.88;5044461;28;20025;-70
2022/01/23 09:57:56;;;;;;;13.48;8.85;;;;;;;11.98;66.00;103760.50;5041743;28;20033;-69
2022/01/23 10:00:27;;;;;;;15.57;11.00;;;;;;;11.66;66.84;103763.03;5048945;28;20091;-70
2022/01/23 10:02:53;;;;;;;17.38;12.07;;;;;;;12.03;66.17;103764.38;5047259;28;20035;-70
2022/01/23 10:05:19;;;;;;;19.92;10.48;;;;;;;11.86;67.09;103759.09;5049391;28;20025;-70
2022/01/23 10:07:45;;;;;;;21.05;14.32;;;;;;;12.00;66.34;103759.34;5047696;28;20048;-69
2022/01/23 10:10:21;;;;;;;13.60;8.55;;;;;;;11.64;66.77;103765.03;5050184;28;20037;-71
2022/01/23 10:12:50;;;;;;;18.45;12.18;;;;;;;11.79;66.55;103750.00;5049217;28;20074;-71
2022/01/23 10:15:18;;;;;;;15.27;8.57;;;;;;;11.72;66.03;103757.00;5048008;28;20166;-70
2022/01/23 10:17:43;;;;;;;15.52;7.60;;;;;;;11.98;66.13;103761.34;5050018;28;20437;-69
2022/01/23 10:20:11;;;;;;;10.68;8.05;;;;;;;12.08;65.80;103751.28;5044823;28;20171;-69
2022/01/23 10:22:37;;;;;;;12.63;7.60;;;;;;;12.15;65.61;103756.84;5044718;28;20040;-70
2022/01/23 10:25:14;;;;;;;9.18;6.00;;;;;;;12.00;64.78;103750.41;5049838;28;20073;-71
2022/01/23 10:28:05;;;;;;;10.27;6.07;;;;;;;11.74;66.53;103755.00;5047723;28;20044;-70
2022/01/23 10:30:52;;;;;;;8.02;5.35;;;;;;;11.46;67.46;103749.78;5048813;28;20059;-68
2022/01/23 10:33:22;;;;;;;6.43;4.00;;;;;;;11.17;68.05;103749.28;5046809;28;20045;-70
2022/01/23 10:36:07;;;;;;;7.03;4.18;;;;;;;11.62;66.71;103748.19;5048218;28;20033;-69
2022/01/23 10:38:39;;;;;;;7.03;3.88;;;;;;;11.73;67.03;103747.94;5049699;28;20056;-70
2022/01/23 10:41:44;;;;;;;2.22;1.98;;;;;;;11.63;65.97;103747.19;5050649;28;20063;-68
2022/01/23 10:49:54;;;;;;;3.78;0.85;;;;;;;12.51;63.97;103743.94;5050337;28;20033;-70
2022/01/23 10:52:40;;;;;;;0.63;0.55;;;;;;;12.38;62.23;103738.19;5050503;28;20037;-69
2022/01/23 10:55:12;;;;;;;0.40;0.40;;;;;;;12.48;61.90;103747.81;5049652;28;20028;-70
2022/01/23 10:57:45;;;;;;;1.13;0.93;;;;;;;12.60;62.36;103748.34;5049295;28;20037;-72
2022/01/23 11:00:21;;;;;;;0.57;0.52;;;;;;;12.59;62.14;103739.41;5050289;28;20040;-69
2022/01/23 11:02:47;;;;;;;2.40;0.90;;;;;;;12.75;61.83;103736.72;5050362;28;20487;-70
2022/01/23 11:05:15;;;;;;;3.47;1.95;;;;;;;12.64;62.23;103737.03;5049976;28;20029;-70
2022/01/23 11:07:45;;;;;;;1.83;1.33;;;;;;;12.63;62.58;103737.19;5048441;28;20112;-70
2022/01/23 11:10:13;;;;;;;2.33;1.80;;;;;;;12.36;63.47;103738.38;5049955;28;20052;-70
2022/01/23 11:18:02;;;;;;;4.03;3.35;;;;;;;12.64;63.52;103720.84;5048671;28;20495;-69
2022/01/23 11:20:49;;;;;;;3.60;2.88;;;;;;;12.71;63.62;103732.66;5045221;28;20108;-68
2022/01/23 11:23:21;;;;;;;5.15;3.70;;;;;;;12.81;63.51;103736.03;5046963;28;20033;-71
2022/01/23 11:25:56;;;;;;;5.88;3.60;;;;;;;12.71;62.48;103727.28;5041120;28;20179;-69
2022/01/23 11:28:45;;;;;;;2.45;1.77;;;;;;;12.61;62.07;103725.75;5040440;28;20029;-70
2022/01/23 11:31:18;;;;;;;1.90;1.50;;;;;;;12.80;61.75;103730.78;5041862;28;20111;-70
2022/01/23 11:33:44;;;;;;;2.83;1.95;;;;;;;12.68;62.58;103721.34;5051110;28;20040;-69
2022/01/23 11:36:10;;;;;;;4.70;2.67;;;;;;;12.56;62.47;103728.09;5047559;28;20032;-69
2022/01/23 11:38:37;;;;;;;4.38;2.45;;;;;;;12.56;62.75;103725.41;5051143;28;20020;-69
2022/01/23 11:54:43;;;;;;;1.42;0.98;;;;;;;12.86;60.63;103705.81;5050016;28;20388;-69
2022/01/23 11:57:33;;;;;;;0.98;0.90;;;;;;;12.85;60.03;103705.00;5053993;28;20044;-69
2022/01/23 12:00:05;;;;;;;1.30;0.88;;;;;;;12.87;60.75;103710.22;5050559;28;20021;-68
2022/01/23 12:02:38;;;;;;;1.17;1.02;;;;;;;12.72;59.43;103711.91;5053667;28;20028;-69
2022/01/23 12:05:10;;;;;;;1.52;1.40;;;;;;;12.63;60.26;103711.06;5035009;28;20475;-70
2022/01/23 12:07:36;;;;;;;3.15;1.65;;;;;;;12.15;61.34;103708.31;5049611;28;20520;-70
2022/01/23 12:10:13;;;;;;;3.55;1.85;;;;;;;12.05;61.68;103703.06;5052149;28;20384;-69
2022/01/23 12:12:42;;;;;;;2.83;1.92;;;;;;;12.38;61.77;103712.09;5017980;28;20124;-70
2022/01/23 12:18:22;;;;;;;3.08;1.92;;;;;;;12.60;61.15;103711.41;5051918;28;20403;-72
2022/01/23 12:20:50;;;;;;;1.95;1.75;;;;;;;12.51;61.29;103706.16;5052293;28;20028;-70
2022/01/23 12:23:16;;;;;;;2.88;1.75;;;;;;;12.29;61.15;103704.97;5051415;28;20053;-74
2022/01/23 12:25:47;;;;;;;1.75;1.30;;;;;;;12.16;61.77;103702.78;5049204;28;20419;-71
2022/01/23 12:28:28;;;;;;;;;;;;;;;12.33;62.41;103695.53;5050221;28;20056;-78
2022/01/23 12:31:26;;;;;;;1.50;0.95;;;;;;;12.33;61.87;103699.09;5057116;23;19928;-75
2022/01/23 12:33:56;;;;;;;2.47;0.98;;;;;;;12.40;59.83;103693.88;5023689;28;20073;-75
2022/01/23 12:36:28;;;;;;;1.27;0.75;;;;;;;12.57;61.42;103695.56;5032828;28;20029;-75
2022/01/23 12:39:15;;;;;;;1.55;1.20;;;;;;;12.28;62.13;103681.72;5009030;28;20032;-73
2022/01/23 12:41:46;;;;;;;2.70;1.75;;;;;;;12.07;61.89;103679.50;5016378;28;20026;-73
2022/01/23 12:44:24;;;;;;;2.45;2.25;;;;;;;12.11;62.09;103678.16;5024857;28;20049;-73
2022/01/23 12:46:49;;;;;;;2.85;1.70;;;;;;;12.24;61.40;103677.69;5006294;28;20034;-74
2022/01/23 12:49:19;;;;;;;3.13;2.05;;;;;;;12.11;61.68;103672.75;5027758;28;20500;-73
2022/01/23 12:51:46;;;;;;;2.00;1.80;;;;;;;12.15;61.41;103665.19;5027362;28;20358;-74
2022/01/23 12:54:16;;;;;;;2.35;2.05;;;;;;;12.04;60.98;103671.75;5028948;28;20021;-74
2022/01/23 12:56:44;;;;;;;3.78;2.22;;;;;;;12.29;61.73;103665.38;5030502;28;20041;-76
2022/01/23 12:59:15;;;;;;;2.08;1.85;;;;;;;12.01;60.41;103663.16;5023849;28;20021;-73
2022/01/23 13:01:43;;;;;;;2.42;2.00;;;;;;;12.18;61.21;103667.56;5027873;28;20485;-74
2022/01/23 13:04:09;;;;;;;2.40;2.10;;;;;;;12.33;60.33;103661.34;5026728;28;20037;-75
2022/01/23 13:06:55;;;;;;;3.38;2.28;;;;;;;12.36;61.44;103655.59;5027792;28;20080;-73
2022/01/23 13:09:53;;;;;;;5.35;2.50;;;;;;;12.34;60.43;103660.31;5004581;28;20030;-73
2022/01/23 13:17:42;;;;;;;;;;;;;;;12.06;58.77;103645.47;5031372;28;20477;-74
2022/01/23 13:26:38;;;;;;;4.55;2.17;;;;;;;12.40;59.56;103644.50;5014225;28;20092;-74
2022/01/23 13:34:25;;;;;;;2.28;1.83;;;;;;;12.31;59.94;103649.88;5021842;28;20555;-74
2022/01/23 13:37:09;;;;;;;2.53;2.28;;;;;;;12.35;60.55;103653.06;5027868;28;20662;-75
2022/01/23 13:39:52;;;;;;;3.28;1.90;;;;;;;12.33;60.51;103649.69;5020929;28;20030;-75
2022/01/23 13:42:44;;;;;;;3.55;2.55;;;;;;;12.37;60.09;103653.75;5020747;28;20033;-75
2022/01/23 13:48:19;;;;;;;2.90;2.13;;;;;;;12.29;60.30;103660.00;5027023;28;20068;-75
2022/01/23 14:04:37;;;;;;;4.28;2.97;;;;;;;12.02;61.14;103662.13;5027836;28;20501;-74
2022/01/23 14:07:02;;;;;;;4.60;3.28;;;;;;;12.01;60.61;103663.16;5019482;28;20037;-75
2022/01/23 14:09:28;;;;;;;4.28;2.97;;;;;;;12.07;60.43;103659.78;5007268;28;20034;-74
2022/01/23 14:11:54;;;;;;;6.43;3.15;;;;;;;12.03;60.20;103658.41;5014593;28;20026;-75
2022/01/23 14:14:25;;;;;;;3.65;2.78;;;;;;;12.06;60.95;103658.97;5024359;28;20033;-74
2022/01/23 14:16:53;;;;;;;3.53;3.17;;;;;;;11.78;60.26;103656.69;5013447;28;20091;-75
2022/01/23 14:19:23;;;;;;;3.92;2.97;;;;;;;11.95;60.61;103653.03;5032159;28;20427;-77
2022/01/23 14:21:57;;;;;;;4.47;3.17;;;;;;;12.02;60.36;103657.59;5032179;28;20049;-73
2022/01/23 14:24:28;;;;;;;5.07;3.35;;;;;;;11.97;60.30;103651.84;5032564;28;20029;-74
2022/01/23 14:27:17;;;;;;;5.10;3.95;;;;;;;11.96;60.90;103650.19;5033784;28;20026;-74
2022/01/23 14:29:52;;;;;;;4.53;3.60;;;;;;;12.02;60.83;103651.34;5028420;28;20022;-73
2022/01/23 14:32:27;;;;;;;8.18;3.90;;;;;;;11.98;60.64;103653.56;5031999;28;20069;-75
2022/01/23 14:35:13;;;;;;;7.63;3.85;;;;;;;11.88;61.37;103655.56;5033401;28;20091;-73
2022/01/23 14:37:41;;;;;;;4.45;3.63;;;;;;;12.03;60.71;103658.41;5028358;28;20038;-75
2022/01/23 14:40:11;;;;;;;4.80;4.25;;;;;;;11.92;61.07;103658.75;5041592;28;20030;-73
2022/01/23 14:42:37;;;;;;;5.30;4.05;;;;;;;11.76;61.07;103661.41;5033554;28;20104;-74
2022/01/23 14:45:07;;;;;;;5.22;3.78;;;;;;;11.90;61.14;103660.75;5032731;28;20108;-73
2022/01/23 14:47:38;;;;;;;5.68;4.72;;;;;;;11.98;60.99;103666.19;5033164;28;20025;-75
2022/01/23 14:50:06;;;;;;;;;;;;;;;11.95;60.81;103655.75;5033039;28;20128;-73
2022/01/23 14:52:32;;;;;;;4.93;4.00;;;;;;;11.87;60.56;103659.22;5032300;28;19936;-74
2022/01/23 14:54:57;;;;;;;5.75;4.50;;;;;;;11.83;60.76;103659.75;5032752;28;20428;-74
2022/01/23 14:57:23;;;;;;;6.90;4.28;;;;;;;11.88;61.19;103657.38;5024721;28;20034;-73
2022/01/23 14:59:48;;;;;;;4.65;3.70;;;;;;;11.87;60.98;103656.53;5047908;28;20029;-72
2022/01/23 15:02:15;;;;;;;9.88;4.50;;;;;;;11.76;61.35;103664.94;5025746;28;20041;-74
2022/01/23 15:04:43;;;;;;;5.57;4.60;;;;;;;11.73;61.54;103665.28;5032372;28;20025;-75